• Join FlightAware (Why Join?)
  • Login
  • US Flag 
11:11AM EDT


 

Airport Tracker/Info


-or-


 

Live Flight TrackerFlight Track Log ✈ EJA831 ✈ 22-Jul-2013 ✈ KASE - KMSY

Flight Track Log - Related Links

Times and Time Zones

All times are in EDT time to prevent confusion due to time zone crossing. See the EJA831 flight status page for this flight to view local times or setup timezone preferences in your user account.

Time Position Orientation Groundspeed Altitude Reporting Facility
EDT Latitude Longitude Course Direction KTS MPH feet Rate Location/Type
10:48AM 39.2906 -106.9397 306° West 240 276 11,100  Level Denver Center
10:50AM 39.3100 -107.0336 285° West 263 303 13,000 1,920 Climbing Denver Center
10:51AM 39.3633 -107.1153 310° West 289 333 15,100 2,220 Climbing Denver Center
10:52AM 39.3158 -107.1994 234° Southwest 315 362 17,600 1,920 Climbing Denver Center
10:53AM 38.9919 -107.1042 173° South  Level FlightAware Approximate
10:53AM 39.2297 -107.1783 169° South 341 392 19,200  Level Denver Center
10:54AM 39.1192 -107.1647 175° South 348 400 21,400 1,800 Climbing Denver Center
10:55AM 39.0411 -107.1494 171° South 353 406 22,900 1,620 Climbing Denver Center
10:56AM 38.9131 -107.1264 172° South 363 418 24,800 1,620 Climbing Denver Center
10:57AM 38.8139 -107.1081 172° South 370 426 26,300 1,380 Climbing Denver Center
10:58AM 38.7128 -107.0881 171° South 368 423 27,700 1,200 Climbing Denver Center
10:59AM 38.6083 -107.0692 172° South 378 435 28,900 1,140 Climbing Denver Center
11:00AM 38.4992 -107.0486 172° South 386 444 30,100 1,200 Climbing Denver Center
11:01AM 38.3869 -106.9669 150° Southeast 404 465 31,400 1,080 Climbing Denver Center
11:02AM 38.3008 -106.8703 139° Southeast 414 476 32,400 840 Climbing Denver Center
11:03AM 38.2339 -106.7764 132° Southeast 419 482 33,200 1,020 Climbing Denver Center
11:04AM 38.1592 -106.6122 120° Southeast 422 486 34,600 1,020 Climbing Denver Center
11:05AM 38.1069 -106.4997 121° Southeast 427 491 35,400 960 Climbing Denver Center
11:06AM 38.0378 -106.3481 120° Southeast 418 481 36,600 720 Climbing Denver Center
11:07AM 37.9800 -106.2244 121° Southeast 425 489 37,000 180 Climbing Denver Center
11:08AM 37.9092 -106.0744 121° Southeast 442 509 37,000  Level Denver Center
11:09AM 37.8489 -105.9417 120° Southeast 450 518 37,000 240 Level Denver Center
11:10AM 37.7842 -105.8083 122° Southeast 460 529 37,500 1,020 Climbing Denver Center
11:11AM 37.7147 -105.6625 121° Southeast 430 495 39,200 1,320 Climbing Denver Center
11:12AM 37.6575 -105.5419 121° Southeast 420 483 40,300 840 Climbing Denver Center
11:13AM 37.5942 -105.4042 120° Southeast 409 471 41,000 300 Climbing Denver Center
11:14AM 37.5353 -105.2833 122° Southeast 418 481 41,000  Level Denver Center
11:15AM 37.4636 -105.1339 121° Southeast 438 504 41,000  Level Denver Center
11:16AM 37.4014 -105.0056 121° Southeast 446 513 41,000  Level Denver Center
11:17AM 37.3281 -104.8558 122° Southeast 451 519 41,000  Level Denver Center
11:18AM 37.2650 -104.7261 121° Southeast 454 522 41,000  Level Denver Center
11:20AM 37.1908 -104.5747 122° Southeast 457 526 41,000  Level Denver Center
11:21AM 37.1269 -104.4458 122° Southeast 458 527 41,000  Level Denver Center
11:22AM 37.0533 -104.2944 121° Southeast 457 526 41,000  Level Denver Center
11:23AM 36.9886 -104.1647 122° Southeast 459 528 41,000  Level Denver Center
11:24AM 36.9136 -104.0144 122° Southeast 459 528 41,000  Level Denver Center
11:25AM 36.8500 -103.8853 122° Southeast 458 527 41,000  Level Denver Center
11:26AM 36.7744 -103.7356 122° Southeast 456 525 41,000  Level Denver Center
11:27AM 36.7097 -103.6075 122° Southeast 457 526 41,000  Level Denver Center
11:28AM 36.6119 -103.4133 122° Southeast 455 524 41,000  Level Albuquerque Center
11:29AM 36.5439 -103.2800 122° Southeast 452 520 41,000  Level Albuquerque Center
11:30AM 36.4753 -103.1456 122° Southeast 454 522 41,000  Level Albuquerque Center
11:31AM 36.4067 -103.0106 122° Southeast 456 525 41,000  Level Albuquerque Center
11:32AM 36.3383 -102.8767 122° Southeast 453 521 41,000  Level Albuquerque Center
11:33AM 36.2700 -102.7461 123° Southeast 452 520 41,000  Level Albuquerque Center
11:34AM 36.2022 -102.6139 122° Southeast 453 521 41,000  Level Albuquerque Center
11:35AM 36.1206 -102.4567 123° Southeast 454 522 41,000  Level Albuquerque Center
11:36AM 36.0511 -102.3247 123° Southeast 455 524 41,000  Level Albuquerque Center
11:37AM 35.9822 -102.1942 123° Southeast 455 524 41,000  Level Albuquerque Center
11:38AM 35.9133 -102.0631 123° Southeast 455 524 41,000  Level Albuquerque Center
11:39AM 35.8442 -101.9306 123° Southeast 457 526 41,000  Level Albuquerque Center
11:41AM 35.7747 -101.7994 123° Southeast 456 525 41,000  Level Albuquerque Center
11:42AM 35.7047 -101.6689 123° Southeast 456 525 41,000  Level Albuquerque Center
11:43AM 35.6214 -101.5114 123° Southeast 456 525 41,000  Level Albuquerque Center
11:44AM 35.5503 -101.3794 123° Southeast 457 526 41,000  Level Albuquerque Center
11:45AM 35.4800 -101.2458 123° Southeast 461 531 41,000  Level Albuquerque Center
11:46AM 35.4197 -101.1081 118° Southeast 459 528 41,000  Level Albuquerque Center
11:47AM 35.3594 -100.9717 118° Southeast 455 524 41,000  Level Albuquerque Center
11:48AM 35.3000 -100.8344 118° Southeast 455 524 41,000  Level Albuquerque Center
11:49AM 35.2406 -100.7003 118° Southeast 452 520 41,000  Level Albuquerque Center
11:50AM 35.1803 -100.5664 119° Southeast 449 517 41,000  Level Albuquerque Center
11:51AM 35.1081 -100.4036 118° Southeast 453 521 41,000  Level Albuquerque Center
11:52AM 35.0536 -100.2808 118° Southeast 454 522 41,000  Level Albuquerque Center
11:53AM 34.9922 -100.1464 119° Southeast 454 522 41,000  Level Albuquerque Center
11:54AM 34.9203 -99.9836 118° Southeast 456 525 41,000  Level Albuquerque Center
11:55AM 34.8592 -99.8492 119° Southeast 454 522 41,000  Level Albuquerque Center
11:56AM 34.8189 -99.7631 120° Southeast 459 528 41,000  Level Fort Worth Center
11:57AM 34.7586 -99.6325 119° Southeast 459 528 41,000  Level Fort Worth Center
11:58AM 34.6964 -99.4997 120° Southeast 454 522 41,000  Level Fort Worth Center
11:59AM 34.6358 -99.3644 119° Southeast 454 522 41,000  Level Fort Worth Center
12:00PM 34.5753 -99.2319 119° Southeast 454 522 41,000  Level Fort Worth Center
12:01PM 34.5144 -99.0994 119° Southeast 447 514 41,000  Level Fort Worth Center
12:02PM 34.4517 -98.9700 120° Southeast 447 514 41,000  Level Fort Worth Center
12:03PM 34.3886 -98.8353 120° Southeast 452 520 41,000  Level Fort Worth Center
12:04PM 34.3253 -98.7011 120° Southeast 452 520 41,000  Level Fort Worth Center
12:05PM 34.2639 -98.5694 119° Southeast 452 520 41,000  Level Fort Worth Center
12:06PM 34.2003 -98.4381 120° Southeast 452 520 41,000  Level Fort Worth Center
12:07PM 34.1367 -98.3042 120° Southeast 452 520 41,000  Level Fort Worth Center
12:08PM 34.0772 -98.1658 117° Southeast 452 520 41,000  Level Fort Worth Center
12:09PM 34.0172 -98.0325 118° Southeast 452 520 41,000  Level Fort Worth Center
12:10PM 33.9533 -97.8992 120° Southeast 452 520 41,000  Level Fort Worth Center
12:11PM 33.8889 -97.7714 121° Southeast 452 520 41,000  Level Fort Worth Center
12:12PM 33.8289 -97.6386 119° Southeast 452 520 41,000  Level Fort Worth Center
12:13PM 33.7642 -97.5058 120° Southeast 452 520 41,000  Level Fort Worth Center
12:14PM 33.7017 -97.3786 121° Southeast 452 520 41,000  Level Fort Worth Center
12:15PM 33.6389 -97.2514 121° Southeast 452 520 41,000  Level Fort Worth Center
12:16PM 33.5761 -97.1192 120° Southeast 452 520 41,000  Level Fort Worth Center
12:17PM 33.5236 -97.0147 121° Southeast 452 520 41,000  Level Fort Worth Center
12:18PM 33.4564 -96.8731 120° Southeast 447 514 41,000  Level Fort Worth Center
12:19PM 33.3911 -96.7467 122° Southeast 447 514 41,000  Level Fort Worth Center
12:20PM 33.3278 -96.6178 120° Southeast 447 514 41,000  Level Fort Worth Center
12:21PM 33.2642 -96.4892 121° Southeast 447 514 41,000  Level Fort Worth Center
12:22PM 33.1986 -96.3633 122° Southeast 447 514 41,000  Level Fort Worth Center
12:23PM 33.1347 -96.2350 121° Southeast 447 514 41,000  Level Fort Worth Center
12:24PM 33.0731 -96.1119 121° Southeast 447 514 41,000  Level Fort Worth Center
12:25PM 33.0069 -95.9842 122° Southeast 452 520 41,000  Level Fort Worth Center
12:26PM 32.9428 -95.8564 121° Southeast 446 513 41,000  Level Fort Worth Center
12:27PM 32.8806 -95.7339 121° Southeast 446 513 41,000  Level Fort Worth Center
12:28PM 32.8142 -95.6089 122° Southeast 446 513 41,000  Level Fort Worth Center
12:29PM 32.7539 -95.4842 120° Southeast 446 513 41,000  Level Fort Worth Center
12:30PM 32.6914 -95.3597 121° Southeast 446 513 41,000  Level Fort Worth Center
12:31PM 32.6225 -95.2353 123° Southeast 446 513 41,000  Level Fort Worth Center
12:32PM 32.5578 -95.1089 121° Southeast 452 520 41,000  Level Fort Worth Center
12:33PM 32.4928 -94.9850 122° Southeast 447 514 41,000  Level Fort Worth Center
12:34PM 32.4275 -94.8586 121° Southeast 447 514 41,000  Level Fort Worth Center
12:35PM 32.3644 -94.7350 121° Southeast 447 514 41,000  Level Fort Worth Center
12:36PM 32.2992 -94.6117 122° Southeast 447 514 41,000  Level Fort Worth Center
12:37PM 32.2358 -94.4883 121° Southeast 447 514 41,000  Level Fort Worth Center
12:38PM 32.1678 -94.3531 121° Southeast 447 514 41,000  Level Fort Worth Center
12:39PM 32.1042 -94.2300 121° Southeast 442 509 41,000  Level Fort Worth Center
12:40PM 32.0386 -94.1075 122° Southeast 442 509 41,000  Level Fort Worth Center
12:41PM 31.9725 -93.9825 122° Southeast 442 509 41,000  Level Fort Worth Center
12:42PM 31.9078 -93.8664 123° Southeast 437 503 41,000  Level Houston Center
12:43PM 31.8417 -93.7428 122° Southeast 441 507 41,000  Level Houston Center
12:44PM 31.7764 -93.6208 122° Southeast 441 507 41,000  Level Houston Center
12:45PM 31.6986 -93.4756 122° Southeast 437 503 41,000  Level Houston Center
12:46PM 31.6381 -93.3522 120° Southeast 434 499 41,000  Level Houston Center
12:47PM 31.6092 -93.2336 106° East 435 501 41,000  Level Houston Center
12:48PM 31.5681 -93.0714 107° East 432 497 41,000 -600 Level Houston Center
12:49PM 31.5339 -92.9339 106° East 436 502 39,800 -1,320 Descending Houston Center
12:50PM 31.5003 -92.7989 106° East 433 498 38,300 -1,500 Descending Houston Center
12:51PM 31.4569 -92.6689 111° Southeast 426 490 36,800 -1,500 Descending Houston Center
12:52PM 31.3828 -92.5600 129° Southeast 428 493 35,300 -900 Descending Houston Center
12:53PM 31.3083 -92.4517 129° Southeast 428 493 35,000 -180 Descending Houston Center
12:54PM 31.2358 -92.3369 126° Southeast 437 503 35,000  Level Houston Center
12:55PM 31.1581 -92.1950 123° Southeast 434 499 35,000  Level Houston Center
12:56PM 31.0925 -92.0747 122° Southeast 437 503 35,000  Level Houston Center
12:57PM 31.0281 -91.9553 122° Southeast 436 502 35,000  Level Houston Center
12:58PM 30.9631 -91.8367 123° Southeast 435 501 35,000 -900 Level Houston Center
12:59PM 30.8878 -91.7117 125° Southeast 432 497 33,200 -2,040 Descending Houston Center
01:00PM 30.7975 -91.6231 140° Southeast 421 484 30,900 -2,400 Descending Houston Center
01:01PM 30.7142 -91.5378 139° Southeast 406 467 28,400 -2,460 Descending Houston Center
01:02PM 30.6281 -91.4533 140° Southeast 403 464 25,900 -2,460 Descending Houston Center
01:03PM 30.5389 -91.3678 140° Southeast 412 474 23,400 -2,760 Descending Houston Center
01:04PM 30.4494 -91.2506 131° Southeast 409 471 20,200 -2,940 Descending Houston Center
01:05PM 30.4128 -91.1883 124° Southeast 408 470 18,600 -2,520 Descending Houston Center
01:06PM 30.3414 -91.0822 128° Southeast 387 445 16,100 -2,520 Descending Houston Center
01:07PM 30.2989 -90.9753 115° Southeast 365 420 13,600 -2,400 Descending Houston Center
01:08PM 30.2733 -90.8678 105° East 344 396 11,300 -1,440 Descending Houston Center
01:09PM 30.2456 -90.7653 107° East 336 387 10,700 -1,080 Descending Houston Center
01:11PM 30.2069 -90.6222 107° East 308 354 8,700 -1,320 Descending Houston Center
01:11PM 30.1964 -90.5769 105° East 293 337 8,100 -1,500 Descending Houston Center
01:12PM 30.1839 -90.5314 108° East 298 343 7,200 -1,620 Descending Houston Center
01:13PM 30.1611 -90.4439 107° East 293 337 5,600 -1,560 Descending Houston Center
01:14PM 30.1392 -90.3606 107° East 284 327 4,000 -1,500 Descending Houston Center
01:15PM 30.1186 -90.2808 107° East 273 314 2,600 -1,080 Descending Houston Center
01:16PM 30.0942 -90.2317 120° Southeast 224 258 1,900 -840 Descending Houston Center
01:17PM 30.0478 -90.2317 180° South 165 190 900 -780 Descending Houston Center
01:18PM 30.0228 -90.2403 197° South 143 165 300 -600 Descending Houston Center
01:20PM 29.9833 -90.2500 101° East  Level FlightAware Approximate